Time;durP1;ratioP1;P1;durP2;ratioP2;P2;SDS_P1;SDS_P2;PMS_P1;PMS_P2;Temp;Humidity;BMP_temperature;BMP_pressure;BME280_temperature;BME280_humidity;BME280_pressure;Samples;Min_cycle;Max_cycle;Signal;HPM_P1;HPM_P2
2023/06/12 00:01:36;;;;;;;11.63;3.92;;;;;;;18.89;40.36;101284.50;4961520;28;20081;-60
2023/06/12 00:04:04;;;;;;;8.00;4.30;;;;;;;18.86;40.21;101285.59;4970210;28;20149;-61
2023/06/12 00:06:35;;;;;;;8.23;4.65;;;;;;;18.82;40.26;101288.63;4967901;28;20458;-57
2023/06/12 00:09:04;;;;;;;8.77;4.00;;;;;;;18.78;40.35;101292.53;4950812;28;20142;-59
2023/06/12 00:11:32;;;;;;;6.47;3.92;;;;;;;18.71;40.60;101295.72;4968570;28;20138;-60
2023/06/12 00:13:59;;;;;;;8.13;4.32;;;;;;;18.68;40.76;101300.41;4968445;28;20587;-60
2023/06/12 00:16:28;;;;;;;8.48;4.07;;;;;;;18.63;40.54;101290.13;4973743;28;20066;-60
2023/06/12 00:18:56;;;;;;;7.10;4.38;;;;;;;18.59;40.85;101299.34;4969622;28;20112;-61
2023/06/12 00:21:23;;;;;;;9.43;4.10;;;;;;;18.55;40.84;101295.25;4969168;28;20577;-61
2023/06/12 00:23:51;;;;;;;7.53;3.67;;;;;;;18.51;40.77;101295.63;4973087;28;20054;-61
2023/06/12 00:26:18;;;;;;;9.27;3.95;;;;;;;18.46;40.78;101298.66;4952391;28;20137;-61
2023/06/12 00:28:46;;;;;;;8.15;3.92;;;;;;;18.41;40.94;101295.53;4971405;28;20065;-61
2023/06/12 00:31:13;;;;;;;6.88;4.20;;;;;;;18.36;40.85;101300.38;4958089;28;20046;-59
2023/06/12 00:33:41;;;;;;;8.15;4.30;;;;;;;18.34;40.91;101299.66;4972450;28;20133;-60
2023/06/12 00:36:08;;;;;;;8.07;3.65;;;;;;;18.28;40.92;101298.34;4972201;28;20130;-60
2023/06/12 00:38:36;;;;;;;7.55;4.70;;;;;;;18.23;40.77;101297.84;4970128;28;20050;-60
2023/06/12 00:41:03;;;;;;;7.32;3.90;;;;;;;18.19;40.90;101299.94;4966524;28;20036;-61
2023/06/12 00:43:31;;;;;;;8.68;3.78;;;;;;;18.16;40.98;101304.66;4971846;28;20537;-61
2023/06/12 00:45:58;;;;;;;5.88;3.83;;;;;;;18.11;40.84;101301.53;4973717;28;20081;-61
2023/06/12 00:48:25;;;;;;;7.68;3.92;;;;;;;18.07;40.85;101300.91;4971352;28;20199;-61
2023/06/12 00:50:56;;;;;;;5.57;3.15;;;;;;;18.06;40.71;101303.72;4978672;28;20133;-61
2023/06/12 00:53:23;;;;;;;6.95;3.80;;;;;;;18.02;40.76;101299.59;4970269;28;20183;-61
2023/06/12 00:55:50;;;;;;;8.43;3.63;;;;;;;17.97;40.78;101294.63;4975118;28;20066;-62
2023/06/12 00:58:18;;;;;;;6.40;3.90;;;;;;;17.94;40.82;101305.53;4978923;28;20130;-59
2023/06/12 01:00:48;;;;;;;9.60;3.60;;;;;;;17.89;40.54;101307.69;4955065;28;20055;-61
2023/06/12 01:03:16;;;;;;;6.32;3.88;;;;;;;17.81;40.65;101299.47;4968298;28;20090;-61
2023/06/12 01:05:45;;;;;;;6.20;3.63;;;;;;;17.78;40.54;101297.03;4970842;28;20059;-61
2023/06/12 01:08:29;;;;;;;3.92;3.50;;;;;;;17.74;40.36;101299.09;4950861;28;20143;-61
2023/06/12 01:11:02;;;;;;;5.03;3.58;;;;;;;17.72;40.49;101301.00;4957090;28;20042;-60
2023/06/12 01:13:30;;;;;;;9.20;3.90;;;;;;;17.70;40.58;101305.59;4954409;28;20050;-58
2023/06/12 01:15:58;;;;;;;6.82;3.38;;;;;;;17.67;40.22;101305.84;4957404;28;20058;-61
2023/06/12 01:18:26;;;;;;;7.85;3.33;;;;;;;17.62;40.48;101303.53;4956192;28;22044;-61
2023/06/12 01:20:58;;;;;;;5.68;3.17;;;;;;;17.58;40.36;101312.72;4974004;28;20055;-61
2023/06/12 01:23:44;;;;;;;7.07;3.53;;;;;;;17.53;40.36;101303.41;4960086;28;20047;-60
2023/06/12 01:26:38;;;;;;;4.85;3.20;;;;;;;17.48;40.20;101295.78;4974467;28;20050;-61
2023/06/12 01:29:35;;;;;;;9.18;3.70;;;;;;;17.46;40.22;101293.22;4974939;28;20043;-61
2023/06/12 01:32:05;;;;;;;5.88;3.63;;;;;;;17.45;40.18;101286.19;4966247;28;20162;-60
2023/06/12 01:34:51;;;;;;;5.47;3.45;;;;;;;17.44;40.00;101303.16;4972190;28;20055;-60
2023/06/12 01:37:29;;;;;;;5.47;3.47;;;;;;;17.40;39.72;101296.34;4975716;28;20062;-61
2023/06/12 01:39:58;;;;;;;6.82;3.55;;;;;;;17.37;39.61;101298.41;4971934;28;20054;-59
2023/06/12 01:42:27;;;;;;;7.20;3.63;;;;;;;17.35;39.48;101290.53;4975553;28;20054;-60
2023/06/12 01:44:54;;;;;;;9.65;3.90;;;;;;;17.32;39.57;101292.59;4958837;28;20062;-62
2023/06/12 01:47:22;;;;;;;6.75;3.65;;;;;;;17.28;39.48;101291.97;4978575;28;20149;-60
2023/06/12 01:49:49;;;;;;;18.67;3.85;;;;;;;17.25;39.45;101297.53;4974678;28;20074;-60
2023/06/12 01:52:17;;;;;;;5.88;3.20;;;;;;;17.22;39.77;101297.78;4971350;28;20050;-61
2023/06/12 01:54:47;;;;;;;8.65;2.95;;;;;;;17.18;39.51;101293.63;4970404;28;20595;-60
2023/06/12 01:57:19;;;;;;;8.32;3.03;;;;;;;17.13;39.53;101301.97;4975474;28;20050;-61
2023/06/12 01:59:49;;;;;;;4.18;3.17;;;;;;;17.10;39.58;101296.03;4963113;28;20055;-61
2023/06/12 02:02:17;;;;;;;4.50;3.30;;;;;;;17.06;39.55;101298.06;4974932;28;20051;-60
2023/06/12 02:04:44;;;;;;;6.10;3.60;;;;;;;17.03;39.44;101300.13;4971060;28;20154;-61
2023/06/12 02:07:13;;;;;;;6.05;3.03;;;;;;;16.98;39.44;101300.47;4971927;28;20537;-59
2023/06/12 02:09:40;;;;;;;9.35;3.28;;;;;;;16.95;39.56;101300.69;4972205;28;20161;-59
2023/06/12 02:12:07;;;;;;;4.60;3.10;;;;;;;16.90;39.82;101300.19;4958751;28;20042;-62
2023/06/12 02:14:35;;;;;;;4.75;3.13;;;;;;;16.86;39.76;101296.91;4972374;28;20075;-60
2023/06/12 02:17:53;;;;;;;5.95;3.28;;;;;;;16.82;40.22;101295.44;4975881;28;20058;-59
2023/06/12 02:21:08;;;;;;;5.68;2.80;;;;;;;16.77;40.32;101300.25;4974035;28;20116;-60
2023/06/12 02:23:35;;;;;;;9.23;3.20;;;;;;;16.73;40.32;101311.25;4959006;28;20059;-65
2023/06/12 02:26:03;;;;;;;4.63;3.38;;;;;;;16.66;40.43;101297.50;4974963;28;20081;-59
2023/06/12 02:31:24;;;;;;;10.00;3.50;;;;;;;16.60;40.70;101306.78;4968155;28;20055;-61
2023/06/12 02:33:51;;;;;;;8.02;3.53;;;;;;;16.54;40.74;101301.94;4975896;28;20635;-61
2023/06/12 02:36:18;;;;;;;10.00;4.18;;;;;;;16.52;40.74;101303.00;4973178;28;20563;-61
2023/06/12 02:38:46;;;;;;;4.65;3.20;;;;;;;16.49;40.89;101300.56;4968299;28;20083;-61
2023/06/12 02:41:13;;;;;;;8.63;3.65;;;;;;;16.46;41.11;101306.94;4976537;28;20217;-60
2023/06/12 02:43:41;;;;;;;6.32;3.72;;;;;;;16.46;41.54;101307.78;4970760;28;20081;-61
2023/06/12 02:46:08;;;;;;;8.25;4.03;;;;;;;16.46;41.67;101310.44;4975042;28;20054;-61
2023/06/12 02:48:36;;;;;;;6.43;3.72;;;;;;;16.45;41.58;101314.06;4972798;28;20151;-61
2023/06/12 02:51:04;;;;;;;5.85;3.45;;;;;;;16.43;41.72;101313.31;4972789;28;20134;-61
2023/06/12 02:53:31;;;;;;;4.85;3.38;;;;;;;16.43;41.80;101312.47;4969312;28;20123;-62
2023/06/12 02:55:59;;;;;;;8.95;3.38;;;;;;;16.39;41.77;101314.53;4968942;28;20058;-61
2023/06/12 02:58:27;;;;;;;7.22;3.75;;;;;;;16.36;41.84;101319.22;4974880;28;20082;-61
2023/06/12 03:00:56;;;;;;;9.48;3.38;;;;;;;16.35;41.90;101322.84;4957239;28;20064;-59
2023/06/12 03:03:25;;;;;;;6.10;3.55;;;;;;;16.34;42.47;101319.31;4978900;28;20074;-61
2023/06/12 03:05:52;;;;;;;5.22;3.42;;;;;;;16.34;42.47;101316.66;4974418;28;20096;-60
2023/06/12 03:08:19;;;;;;;6.10;3.42;;;;;;;16.34;42.70;101318.47;4974372;28;20054;-61
2023/06/12 03:10:47;;;;;;;7.22;3.30;;;;;;;16.35;42.62;101323.69;4977654;28;20058;-62
2023/06/12 03:13:14;;;;;;;11.45;4.80;;;;;;;16.33;42.46;101319.41;4971896;28;20081;-62
2023/06/12 03:15:41;;;;;;;4.88;3.80;;;;;;;16.33;42.45;101328.25;4981058;28;20386;-58
2023/06/12 03:18:09;;;;;;;7.13;3.65;;;;;;;16.34;42.62;101324.63;4973892;28;20568;-61
2023/06/12 03:20:36;;;;;;;10.90;4.22;;;;;;;16.35;42.65;101323.69;4954737;28;20133;-61
2023/06/12 03:23:04;;;;;;;9.32;3.85;;;;;;;16.34;42.60;101327.28;4970948;28;20051;-59
2023/06/12 03:25:31;;;;;;;11.85;3.90;;;;;;;16.37;42.41;101329.72;4978248;28;20145;-60
2023/06/12 03:27:59;;;;;;;7.97;4.00;;;;;;;16.38;42.26;101323.44;4977082;28;20050;-60
2023/06/12 03:30:26;;;;;;;5.80;3.72;;;;;;;16.40;42.40;101318.03;4966904;28;20054;-60
2023/06/12 03:32:56;;;;;;;9.60;3.70;;;;;;;16.42;42.20;101329.38;4978429;28;20248;-61
2023/06/12 03:35:23;;;;;;;9.02;3.50;;;;;;;16.41;42.14;101322.38;4971346;28;20274;-59
2023/06/12 03:37:51;;;;;;;10.27;3.70;;;;;;;16.41;42.23;101314.41;4979130;28;20118;-61
2023/06/12 03:40:18;;;;;;;10.55;3.63;;;;;;;16.40;42.13;101329.50;4978086;28;20237;-59
2023/06/12 03:42:46;;;;;;;7.35;3.20;;;;;;;16.42;42.10;101329.38;4967498;28;20142;-60
2023/06/12 03:45:14;;;;;;;3.85;2.80;;;;;;;16.45;42.05;101327.38;4974470;28;20047;-60
2023/06/12 03:47:41;;;;;;;5.05;3.28;;;;;;;16.44;42.08;101325.66;4974559;28;20168;-61
2023/06/12 03:50:10;;;;;;;5.35;3.70;;;;;;;16.43;41.98;101334.59;4968262;28;20138;-62
2023/06/12 03:52:39;;;;;;;6.63;4.30;;;;;;;16.45;42.06;101330.03;4969273;28;20141;-61
2023/06/12 03:55:06;;;;;;;11.25;3.78;;;;;;;16.44;42.23;101331.00;4958960;28;20425;-59
2023/06/12 03:57:34;;;;;;;8.85;3.58;;;;;;;16.46;41.96;101333.53;4969042;28;20069;-60
2023/06/12 04:00:01;;;;;;;4.90;3.33;;;;;;;16.50;41.95;101329.69;4971581;28;20052;-61
2023/06/12 04:02:29;;;;;;;11.45;3.67;;;;;;;16.54;42.10;101332.97;4971218;28;20062;-60
2023/06/12 04:04:57;;;;;;;7.72;3.53;;;;;;;16.55;41.74;101332.84;4967942;28;21014;-59
2023/06/12 04:07:25;;;;;;;7.43;3.38;;;;;;;16.60;41.86;101330.72;4969728;28;20506;-59
2023/06/12 04:09:53;;;;;;;8.15;3.45;;;;;;;16.63;41.59;101327.84;4963773;28;20055;-60
2023/06/12 04:12:20;;;;;;;9.38;3.80;;;;;;;16.63;41.55;101337.63;4969698;28;20075;-60
2023/06/12 04:14:47;;;;;;;5.45;3.55;;;;;;;16.64;41.51;101328.69;4971098;28;20142;-61
2023/06/12 04:17:16;;;;;;;7.85;3.13;;;;;;;16.68;41.45;101336.31;4968963;28;20054;-61
2023/06/12 04:19:43;;;;;;;8.00;3.42;;;;;;;16.68;41.35;101331.00;4962134;28;20047;-60
2023/06/12 04:22:12;;;;;;;8.07;3.08;;;;;;;16.71;41.24;101333.44;4969716;28;20145;-58
2023/06/12 04:24:42;;;;;;;7.05;4.00;;;;;;;16.77;41.25;101334.81;4969807;28;20113;-61
2023/06/12 04:27:10;;;;;;;8.25;3.72;;;;;;;16.82;41.31;101339.81;4967942;28;20149;-60
2023/06/12 04:29:38;;;;;;;5.10;3.20;;;;;;;16.83;41.19;101341.50;4971976;28;20519;-61
2023/06/12 04:32:06;;;;;;;7.82;3.97;;;;;;;16.87;41.16;101337.66;4949208;28;20063;-60
2023/06/12 04:34:39;;;;;;;8.82;3.17;;;;;;;16.91;41.05;101342.63;4968625;28;20185;-60
2023/06/12 04:37:08;;;;;;;12.82;3.70;;;;;;;16.99;40.79;101343.88;4970521;28;20074;-62
2023/06/12 04:39:37;;;;;;;18.70;4.20;;;;;;;17.02;40.71;101339.19;4967613;28;20109;-62
2023/06/12 04:42:05;;;;;;;7.15;3.55;;;;;;;17.06;40.70;101347.75;4970929;28;20085;-61
2023/06/12 04:44:34;;;;;;;8.60;3.15;;;;;;;17.11;40.62;101345.59;4967991;28;20065;-60
2023/06/12 04:47:04;;;;;;;10.60;3.53;;;;;;;17.18;40.60;101342.38;4969109;28;20407;-63
2023/06/12 04:49:32;;;;;;;7.63;3.20;;;;;;;17.24;40.43;101348.19;4969230;28;20051;-60
2023/06/12 04:52:03;;;;;;;17.63;4.88;;;;;;;17.29;40.31;101356.69;4970070;28;20106;-62
2023/06/12 04:54:41;;;;;;;9.23;3.97;;;;;;;17.33;40.48;101351.00;4971888;28;20101;-60
2023/06/12 04:57:12;;;;;;;12.13;3.83;;;;;;;17.40;40.31;101354.06;4969922;28;20058;-61
2023/06/12 04:59:40;;;;;;;13.07;3.75;;;;;;;17.44;39.97;101351.06;4969199;28;20463;-61
2023/06/12 05:02:08;;;;;;;10.38;3.63;;;;;;;17.50;40.05;101352.41;4967851;28;20154;-62
2023/06/12 05:04:36;;;;;;;14.13;3.97;;;;;;;17.56;40.06;101351.94;4967373;28;20054;-60
2023/06/12 05:07:14;;;;;;;13.93;3.78;;;;;;;17.66;40.11;101355.59;4969589;28;20073;-60
2023/06/12 05:09:41;;;;;;;5.18;3.13;;;;;;;17.74;39.84;101355.00;4962024;28;20058;-61
2023/06/12 05:12:09;;;;;;;10.93;3.30;;;;;;;17.85;39.49;101362.19;4969376;28;20046;-60
2023/06/12 05:14:38;;;;;;;11.95;4.68;;;;;;;17.95;39.36;101363.16;4973162;28;20064;-62
2023/06/12 05:17:06;;;;;;;7.78;3.70;;;;;;;18.02;39.32;101358.22;4971978;28;20051;-61
2023/06/12 05:19:35;;;;;;;8.00;3.65;;;;;;;18.09;39.01;101349.59;4976981;28;20153;-60
2023/06/12 05:22:52;;;;;;;12.93;3.63;;;;;;;18.16;39.13;101349.97;4970161;28;20197;-60
2023/06/12 05:25:44;;;;;;;8.25;3.28;;;;;;;18.29;38.78;101349.84;4975433;28;20174;-59
2023/06/12 05:28:11;;;;;;;10.73;2.97;;;;;;;18.31;38.74;101348.72;4977060;28;20054;-61
2023/06/12 05:30:39;;;;;;;6.63;3.40;;;;;;;18.37;38.85;101350.94;4974415;28;20379;-62
2023/06/12 05:33:06;;;;;;;7.07;2.92;;;;;;;18.41;38.65;101351.50;4964110;28;20054;-60
2023/06/12 05:35:35;;;;;;;8.43;3.22;;;;;;;18.46;38.61;101355.50;4975110;28;20229;-59
2023/06/12 05:38:02;;;;;;;8.00;3.40;;;;;;;18.53;38.68;101352.34;4961004;28;20065;-61
2023/06/12 05:40:29;;;;;;;11.95;4.05;;;;;;;18.63;38.61;101353.28;4974291;28;20059;-62
2023/06/12 05:42:59;;;;;;;7.75;3.65;;;;;;;18.72;38.55;101358.75;4971476;28;20167;-59
2023/06/12 05:45:26;;;;;;;5.70;2.75;;;;;;;18.80;38.37;101355.47;4978213;28;20553;-58
2023/06/12 05:47:53;;;;;;;8.07;3.35;;;;;;;18.90;37.99;101363.56;4974917;28;20519;-59
2023/06/12 05:50:21;;;;;;;15.48;4.03;;;;;;;18.97;37.93;101360.25;4966302;28;20484;-62
2023/06/12 05:52:49;;;;;;;10.73;3.28;;;;;;;19.07;37.67;101368.34;4982099;28;20153;-59
2023/06/12 05:55:17;;;;;;;9.00;3.35;;;;;;;19.17;37.59;101363.94;4982491;28;20142;-61
2023/06/12 05:57:44;;;;;;;9.75;4.80;;;;;;;19.31;37.55;101365.44;4966835;28;20084;-59
2023/06/12 06:00:13;;;;;;;6.13;3.10;;;;;;;19.41;37.36;101366.38;4986357;28;20058;-61
2023/06/12 06:02:42;;;;;;;7.25;2.90;;;;;;;19.51;37.33;101371.78;4970824;28;20534;-59
2023/06/12 06:05:11;;;;;;;8.82;3.70;;;;;;;19.60;37.07;101368.38;4965896;28;20082;-60
2023/06/12 06:07:39;;;;;;;7.63;3.63;;;;;;;19.70;37.00;101365.75;4984563;28;20480;-61
2023/06/12 06:10:07;;;;;;;4.80;2.83;;;;;;;19.80;37.13;101372.00;4983735;28;20050;-59
2023/06/12 06:12:34;;;;;;;6.32;3.38;;;;;;;19.87;36.98;101366.97;4983992;28;20057;-61
2023/06/12 06:15:02;;;;;;;7.68;3.30;;;;;;;19.94;36.82;101365.44;4978364;28;20078;-60
2023/06/12 06:17:30;;;;;;;15.50;3.90;;;;;;;20.03;36.81;101370.00;4979054;28;20055;-61
2023/06/12 06:19:58;;;;;;;8.98;2.97;;;;;;;20.15;36.90;101370.75;4980403;28;20050;-62
2023/06/12 06:22:27;;;;;;;12.75;3.55;;;;;;;20.27;36.69;101377.72;4975047;28;20074;-61
2023/06/12 06:24:54;;;;;;;9.35;3.80;;;;;;;20.39;36.32;101373.09;4978359;28;20050;-61
2023/06/12 06:27:21;;;;;;;9.02;3.70;;;;;;;20.52;36.33;101373.72;4979121;28;20059;-60
2023/06/12 06:29:49;;;;;;;16.10;4.00;;;;;;;20.62;36.14;101374.59;4975156;28;20054;-60
2023/06/12 06:32:17;;;;;;;7.72;3.60;;;;;;;20.67;36.16;101375.06;4960905;28;20054;-61
2023/06/12 06:34:44;;;;;;;11.20;3.67;;;;;;;20.74;36.27;101375.34;4961380;28;20062;-61
2023/06/12 06:37:12;;;;;;;8.45;3.90;;;;;;;20.86;36.13;101384.09;4978289;28;20058;-61
2023/06/12 06:39:40;;;;;;;8.45;3.20;;;;;;;20.95;35.75;101376.06;4980615;28;20145;-61
2023/06/12 06:42:07;;;;;;;10.38;3.55;;;;;;;21.09;35.69;101376.66;4976956;28;20149;-61
2023/06/12 06:44:35;;;;;;;6.30;3.38;;;;;;;21.20;35.99;101379.19;4978713;28;20050;-62
2023/06/12 06:47:03;;;;;;;10.05;3.78;;;;;;;21.30;35.92;101377.38;4981915;28;20129;-62
2023/06/12 06:49:31;;;;;;;15.40;3.60;;;;;;;21.39;35.63;101386.38;4963353;28;20057;-60
2023/06/12 06:51:58;;;;;;;11.57;3.90;;;;;;;21.49;35.51;101388.09;4975871;28;20054;-59
2023/06/12 06:54:26;;;;;;;6.68;3.90;;;;;;;21.58;35.27;101389.06;4974516;28;20066;-62
2023/06/12 06:56:53;;;;;;;12.82;4.03;;;;;;;21.69;34.89;101380.00;4983272;28;20721;-61
2023/06/12 06:59:20;;;;;;;9.30;3.63;;;;;;;21.82;35.34;101387.75;4982873;28;20072;-60
2023/06/12 07:01:48;;;;;;;8.77;3.00;;;;;;;21.95;35.11;101390.94;4979905;28;20574;-60
2023/06/12 07:04:15;;;;;;;7.22;3.38;;;;;;;22.02;35.19;101386.72;4977096;28;20050;-61
2023/06/12 07:06:43;;;;;;;10.32;3.95;;;;;;;22.10;34.80;101388.63;4977297;28;20406;-61
2023/06/12 07:09:11;;;;;;;8.00;3.70;;;;;;;22.12;35.13;101390.22;4979975;28;20101;-60
2023/06/12 07:11:38;;;;;;;17.08;3.55;;;;;;;22.19;35.16;101387.78;4982357;28;20076;-60
2023/06/12 07:14:05;;;;;;;7.60;3.17;;;;;;;22.29;34.93;101395.78;4977092;28;20148;-61
2023/06/12 07:16:33;;;;;;;9.27;3.38;;;;;;;22.42;34.80;101398.97;4978335;28;20137;-62
2023/06/12 07:19:00;;;;;;;6.72;3.03;;;;;;;22.55;34.59;101388.75;4975728;28;20105;-62
2023/06/12 07:21:28;;;;;;;9.45;3.20;;;;;;;22.65;34.23;101392.25;4976084;28;20046;-61
2023/06/12 07:23:55;;;;;;;9.25;3.67;;;;;;;22.79;34.20;101395.41;4977523;28;20082;-60
2023/06/12 07:26:23;;;;;;;5.40;3.30;;;;;;;22.82;33.75;101393.25;4980104;28;20091;-59
2023/06/12 07:28:56;;;;;;;6.68;3.55;;;;;;;22.89;33.51;101401.56;4972867;28;20046;-61
2023/06/12 07:31:27;;;;;;;5.65;3.38;;;;;;;22.96;33.07;101398.13;4971943;28;20065;-59
2023/06/12 07:33:55;;;;;;;6.32;3.80;;;;;;;23.10;32.72;101403.97;4977188;28;20064;-61
2023/06/12 07:36:22;;;;;;;10.15;3.55;;;;;;;23.21;32.41;101409.97;4977074;28;20154;-62
2023/06/12 07:38:50;;;;;;;6.03;3.17;;;;;;;23.30;32.34;101402.81;4960863;28;20050;-61
2023/06/12 07:41:18;;;;;;;5.35;2.90;;;;;;;23.40;31.96;101402.72;4980774;28;20085;-59
2023/06/12 07:43:45;;;;;;;9.05;4.32;;;;;;;23.49;31.46;101407.19;4965527;28;20062;-61
2023/06/12 07:46:14;;;;;;;10.82;3.33;;;;;;;23.54;31.11;101398.66;4978295;28;20054;-60
2023/06/12 07:48:41;;;;;;;11.30;3.60;;;;;;;23.62;31.03;101396.03;4994810;28;20061;-61
2023/06/12 07:51:09;;;;;;;6.72;3.50;;;;;;;23.67;30.76;101399.13;4973525;28;20047;-60
2023/06/12 07:53:36;;;;;;;5.95;3.30;;;;;;;23.77;30.53;101399.00;4978190;28;20129;-60
2023/06/12 07:56:06;;;;;;;5.93;3.83;;;;;;;23.82;30.60;101394.00;4976635;28;20547;-60
2023/06/12 07:58:37;;;;;;;5.80;3.50;;;;;;;23.98;30.76;101396.81;4964888;28;20057;-62
2023/06/12 08:01:06;;;;;;;5.63;2.65;;;;;;;24.09;29.49;101392.97;4937378;28;20063;-61
2023/06/12 08:03:38;;;;;;;6.85;3.75;;;;;;;24.11;29.64;101391.84;4958377;28;20458;-62
2023/06/12 08:06:12;;;;;;;7.68;3.30;;;;;;;24.21;29.97;101389.88;4946457;28;20485;-60
2023/06/12 08:08:44;;;;;;;10.90;3.38;;;;;;;24.29;29.72;101383.69;4970089;28;20076;-61
2023/06/12 08:11:12;;;;;;;5.20;3.20;;;;;;;24.38;29.65;101379.22;4974836;28;20058;-61
2023/06/12 08:13:40;;;;;;;9.30;3.10;;;;;;;24.52;29.30;101383.13;4955938;28;20074;-63
2023/06/12 08:16:08;;;;;;;7.63;3.17;;;;;;;24.66;29.22;101386.03;4963413;28;20216;-62
2023/06/12 08:18:35;;;;;;;7.45;3.22;;;;;;;24.75;29.07;101385.03;4963388;28;20137;-60
2023/06/12 08:21:02;;;;;;;4.50;2.92;;;;;;;24.85;28.67;101382.19;4964938;28;20351;-61
2023/06/12 08:23:30;;;;;;;7.38;2.95;;;;;;;24.90;27.77;101379.00;4946210;28;20056;-61
2023/06/12 08:25:57;;;;;;;8.98;3.20;;;;;;;24.91;27.56;101365.41;4962129;28;20138;-60
2023/06/12 08:28:24;;;;;;;7.63;2.97;;;;;;;24.98;27.45;101361.00;4965778;28;20558;-61
2023/06/12 08:30:57;;;;;;;6.03;2.95;;;;;;;25.07;27.75;101372.66;4959892;28;20050;-61
2023/06/12 08:33:25;;;;;;;14.02;3.75;;;;;;;25.06;27.44;101364.75;4969698;28;20116;-60
2023/06/12 08:35:53;;;;;;;7.97;3.50;;;;;;;25.17;27.40;101365.28;4953538;28;20176;-59
2023/06/12 08:38:20;;;;;;;9.18;3.13;;;;;;;25.31;26.92;101371.00;4965249;28;20083;-62
2023/06/12 08:40:53;;;;;;;9.32;3.63;;;;;;;25.14;26.24;101372.88;4969034;28;20237;-61
2023/06/12 08:43:21;;;;;;;6.70;2.95;;;;;;;25.08;26.30;101376.22;4970071;28;20145;-60
2023/06/12 08:45:51;;;;;;;7.78;2.95;;;;;;;24.98;25.99;101371.78;4960742;28;20043;-62
2023/06/12 08:48:20;;;;;;;6.75;2.80;;;;;;;25.08;26.17;101368.13;4960160;28;20054;-61
2023/06/12 08:50:48;;;;;;;9.18;3.17;;;;;;;25.23;26.41;101370.00;4962008;28;20535;-61
2023/06/12 08:53:16;;;;;;;13.60;4.40;;;;;;;25.40;26.47;101368.16;4931358;28;20820;-62
2023/06/12 08:55:44;;;;;;;5.82;3.13;;;;;;;25.44;25.95;101365.94;4966354;28;20078;-63
2023/06/12 08:58:13;;;;;;;7.20;3.00;;;;;;;25.58;25.96;101372.50;4978611;28;20055;-62
2023/06/12 09:00:40;;;;;;;14.57;3.38;;;;;;;25.65;25.75;101368.97;4971993;28;20051;-62
2023/06/12 09:03:08;;;;;;;8.35;3.70;;;;;;;25.81;25.79;101380.78;4943902;28;20138;-61
2023/06/12 09:05:37;;;;;;;11.10;4.15;;;;;;;25.97;26.21;101367.25;4969935;28;20133;-61
2023/06/12 09:08:05;;;;;;;8.27;3.30;;;;;;;26.08;26.36;101377.69;4935800;28;20431;-62
2023/06/12 09:10:34;;;;;;;5.97;3.75;;;;;;;26.13;26.20;101380.69;4959780;28;20046;-62
2023/06/12 09:13:09;;;;;;;10.13;3.55;;;;;;;26.24;26.29;101380.28;4978656;28;20104;-62
2023/06/12 09:15:41;;;;;;;5.30;3.22;;;;;;;26.35;25.58;101371.00;4971952;28;20134;-60
2023/06/12 09:18:10;;;;;;;6.80;3.25;;;;;;;26.52;25.88;101379.88;4983678;28;20524;-60
2023/06/12 09:20:38;;;;;;;4.72;3.72;;;;;;;26.64;25.62;101377.63;4967823;28;20510;-61
2023/06/12 09:23:11;;;;;;;6.70;4.13;;;;;;;26.78;26.01;101371.44;4970179;28;20578;-61
2023/06/12 09:25:40;;;;;;;4.85;3.50;;;;;;;26.99;25.29;101373.53;4969742;28;20637;-60
2023/06/12 09:28:15;;;;;;;9.25;3.83;;;;;;;27.09;25.33;101384.13;4976477;28;20168;-62
2023/06/12 09:30:43;;;;;;;5.80;3.63;;;;;;;27.13;25.13;101371.94;4950604;28;20156;-63
2023/06/12 09:33:10;;;;;;;6.00;3.17;;;;;;;27.15;24.88;101375.28;4970121;28;20083;-61
2023/06/12 09:35:51;;;;;;;6.78;3.55;;;;;;;27.12;25.54;101376.50;4966031;28;20054;-60
2023/06/12 09:38:34;;;;;;;4.43;3.58;;;;;;;27.11;25.31;101369.41;4965832;28;20804;-61
2023/06/12 09:41:03;;;;;;;13.25;4.47;;;;;;;27.13;25.12;101361.13;4970632;28;20138;-61
2023/06/12 09:43:32;;;;;;;4.05;3.22;;;;;;;27.29;25.95;101365.53;4973248;28;20058;-61
2023/06/12 09:46:05;;;;;;;4.68;3.40;;;;;;;27.42;24.86;101365.75;4950370;28;20177;-58
2023/06/12 09:48:39;;;;;;;5.18;3.33;;;;;;;27.40;24.73;101365.13;4970349;28;20499;-60
2023/06/12 09:51:09;;;;;;;5.05;3.40;;;;;;;27.45;24.74;101357.28;4965462;28;20454;-61
2023/06/12 09:53:39;;;;;;;8.82;3.28;;;;;;;27.51;25.32;101356.56;4963792;28;20051;-61
2023/06/12 09:56:08;;;;;;;5.05;3.28;;;;;;;27.69;25.39;101362.47;4964675;28;20063;-60
2023/06/12 09:58:37;;;;;;;7.45;3.47;;;;;;;27.77;25.20;101361.56;4967455;28;20075;-61
2023/06/12 10:01:08;;;;;;;6.70;3.25;;;;;;;27.59;25.63;101355.63;4970010;28;20133;-60
2023/06/12 10:03:38;;;;;;;5.82;2.58;;;;;;;27.68;25.65;101357.22;4970648;28;20149;-60
2023/06/12 10:06:07;;;;;;;5.10;3.50;;;;;;;27.77;25.50;101345.34;4974852;28;20057;-61
2023/06/12 10:08:34;;;;;;;5.32;3.17;;;;;;;27.98;25.84;101348.16;4983753;28;20051;-61
2023/06/12 10:11:06;;;;;;;5.88;3.97;;;;;;;28.17;25.44;101349.44;4973725;28;20209;-61
2023/06/12 10:13:35;;;;;;;7.38;3.83;;;;;;;28.22;25.23;101349.69;4963802;28;20059;-60
2023/06/12 10:16:03;;;;;;;5.20;3.10;;;;;;;28.15;25.44;101342.53;4966683;28;20059;-61
2023/06/12 10:18:31;;;;;;;7.95;3.72;;;;;;;28.31;25.48;101346.91;4967477;28;20142;-60
2023/06/12 10:21:00;;;;;;;8.05;3.90;;;;;;;28.47;25.59;101342.13;4967341;28;20042;-58
2023/06/12 10:23:28;;;;;;;4.68;3.30;;;;;;;28.37;25.72;101347.03;4966574;28;20066;-60
2023/06/12 10:25:59;;;;;;;3.88;3.47;;;;;;;28.09;26.12;101341.41;4953669;28;20623;-62
2023/06/12 10:28:27;;;;;;;7.15;4.03;;;;;;;27.89;26.21;101338.44;4951753;28;20065;-60
2023/06/12 10:31:17;;;;;;;6.72;3.53;;;;;;;27.94;26.39;101340.59;4942560;28;20149;-60
2023/06/12 10:34:05;;;;;;;6.32;3.70;;;;;;;28.10;26.38;101343.13;4967262;28;20054;-61
2023/06/12 10:36:41;;;;;;;8.38;3.60;;;;;;;28.05;26.30;101321.16;4953083;28;20506;-61
2023/06/12 10:39:27;;;;;;;4.10;3.20;;;;;;;27.79;26.55;101337.06;4960812;28;20065;-59
2023/06/12 10:41:57;;;;;;;6.68;3.47;;;;;;;27.50;26.86;101335.94;4967017;28;20578;-59
2023/06/12 10:44:34;;;;;;;9.02;3.42;;;;;;;27.34;27.14;101331.53;4973642;28;20086;-61
2023/06/12 10:47:02;;;;;;;5.53;3.40;;;;;;;27.05;27.32;101331.41;4968647;28;20528;-61
2023/06/12 10:49:30;;;;;;;4.85;3.58;;;;;;;27.00;27.56;101337.38;4966297;28;20442;-60
2023/06/12 10:52:00;;;;;;;5.97;3.22;;;;;;;27.33;27.50;101321.72;4964843;28;20511;-61
2023/06/12 10:54:28;;;;;;;6.03;2.90;;;;;;;27.85;27.34;101320.06;4957398;28;20098;-62
2023/06/12 10:56:58;;;;;;;7.70;3.83;;;;;;;28.26;26.79;101318.50;4955872;28;20381;-62
2023/06/12 10:59:33;;;;;;;6.90;2.95;;;;;;;28.36;26.44;101314.69;4964915;28;20137;-60
2023/06/12 11:02:02;;;;;;;5.82;3.38;;;;;;;28.34;26.35;101314.03;4966641;28;20054;-62
2023/06/12 11:04:37;;;;;;;8.38;3.58;;;;;;;28.35;26.29;101318.44;4966692;28;20058;-61
2023/06/12 11:07:05;;;;;;;4.90;3.58;;;;;;;28.38;25.90;101307.25;4964006;28;20058;-61
2023/06/12 11:09:40;;;;;;;4.25;3.20;;;;;;;28.37;25.95;101305.53;4968845;28;20399;-60
2023/06/12 11:12:08;;;;;;;6.03;3.27;;;;;;;28.24;25.48;101303.50;4971918;28;20146;-61
2023/06/12 11:14:35;;;;;;;4.50;3.03;;;;;;;28.25;25.26;101302.47;4957595;28;20062;-60
2023/06/12 11:17:03;;;;;;;4.43;3.25;;;;;;;28.50;24.75;101298.44;4964098;28;21050;-61
2023/06/12 11:19:31;;;;;;;6.25;3.60;;;;;;;28.55;24.30;101288.84;4972710;28;20050;-60
2023/06/12 11:22:03;;;;;;;6.53;3.67;;;;;;;28.84;24.51;101280.63;4967969;28;20055;-60
2023/06/12 11:24:31;;;;;;;6.28;3.25;;;;;;;29.13;24.55;101282.34;4965398;28;20141;-61
2023/06/12 11:27:00;;;;;;;6.03;3.13;;;;;;;29.24;24.53;101292.66;4952502;28;20402;-60
2023/06/12 11:29:34;;;;;;;4.18;3.30;;;;;;;29.49;24.54;101275.94;4972986;28;20108;-60
2023/06/12 11:32:22;;;;;;;7.82;3.53;;;;;;;29.75;24.69;101292.41;4970686;28;20079;-60
2023/06/12 11:34:51;;;;;;;8.63;3.97;;;;;;;29.52;23.41;101280.97;4970965;28;20447;-61
2023/06/12 11:37:21;;;;;;;12.32;3.90;;;;;;;29.31;23.59;101283.72;4965779;28;20162;-59
2023/06/12 11:39:59;;;;;;;6.38;4.22;;;;;;;29.45;23.56;101275.50;4967911;28;20162;-60